sensor_id;sensor_type;location;lat;lon;timestamp;temperature;humidity
27900;DHT22;15243;50.726;7.080;2022-09-11T00:01:11;16.20;99.90
27900;DHT22;15243;50.726;7.080;2022-09-11T00:03:40;16.20;99.90
27900;DHT22;15243;50.726;7.080;2022-09-11T00:06:17;16.20;99.90
27900;DHT22;15243;50.726;7.080;2022-09-11T00:08:58;16.20;99.90
27900;DHT22;15243;50.726;7.080;2022-09-11T00:11:29;16.20;99.90
27900;DHT22;15243;50.726;7.080;2022-09-11T00:13:56;16.20;99.90
27900;DHT22;15243;50.726;7.080;2022-09-11T00:16:30;16.20;99.90
27900;DHT22;15243;50.726;7.080;2022-09-11T00:19:10;16.20;99.90
27900;DHT22;15243;50.726;7.080;2022-09-11T00:21:37;16.20;99.90
27900;DHT22;15243;50.726;7.080;2022-09-11T00:24:05;16.30;99.90
27900;DHT22;15243;50.726;7.080;2022-09-11T00:26:36;16.10;99.90
27900;DHT22;15243;50.726;7.080;2022-09-11T00:29:03;16.10;99.90
27900;DHT22;15243;50.726;7.080;2022-09-11T00:31:30;16.00;99.90
27900;DHT22;15243;50.726;7.080;2022-09-11T00:33:58;16.00;99.90
27900;DHT22;15243;50.726;7.080;2022-09-11T00:36:29;16.00;99.90
27900;DHT22;15243;50.726;7.080;2022-09-11T00:39:01;16.10;99.90
27900;DHT22;15243;50.726;7.080;2022-09-11T00:41:34;16.10;99.90
27900;DHT22;15243;50.726;7.080;2022-09-11T00:49:35;16.20;99.90
27900;DHT22;15243;50.726;7.080;2022-09-11T00:54:42;16.10;99.90
27900;DHT22;15243;50.726;7.080;2022-09-11T00:57:11;16.20;99.90
27900;DHT22;15243;50.726;7.080;2022-09-11T00:59:40;16.10;99.90
27900;DHT22;15243;50.726;7.080;2022-09-11T01:02:11;16.10;99.90
27900;DHT22;15243;50.726;7.080;2022-09-11T01:04:40;16.20;99.90
27900;DHT22;15243;50.726;7.080;2022-09-11T01:07:07;16.30;99.90
27900;DHT22;15243;50.726;7.080;2022-09-11T01:09:36;16.30;99.90
27900;DHT22;15243;50.726;7.080;2022-09-11T01:12:18;16.30;99.90
27900;DHT22;15243;50.726;7.080;2022-09-11T01:15:02;16.40;99.90
27900;DHT22;15243;50.726;7.080;2022-09-11T01:17:39;16.30;99.90
27900;DHT22;15243;50.726;7.080;2022-09-11T01:26:33;16.40;99.90
27900;DHT22;15243;50.726;7.080;2022-09-11T01:34:34;16.30;99.90
27900;DHT22;15243;50.726;7.080;2022-09-11T01:37:09;16.20;99.90
27900;DHT22;15243;50.726;7.080;2022-09-11T01:39:43;16.20;99.90
27900;DHT22;15243;50.726;7.080;2022-09-11T01:42:13;16.10;99.90
27900;DHT22;15243;50.726;7.080;2022-09-11T01:44:49;16.20;99.90
27900;DHT22;15243;50.726;7.080;2022-09-11T01:47:18;16.20;99.90
27900;DHT22;15243;50.726;7.080;2022-09-11T01:49:59;16.20;99.90
27900;DHT22;15243;50.726;7.080;2022-09-11T01:52:32;16.10;99.90
27900;DHT22;15243;50.726;7.080;2022-09-11T01:55:08;16.10;99.90
27900;DHT22;15243;50.726;7.080;2022-09-11T01:57:48;16.20;99.90
27900;DHT22;15243;50.726;7.080;2022-09-11T02:00:17;16.10;99.90
27900;DHT22;15243;50.726;7.080;2022-09-11T02:02:48;16.10;99.90
27900;DHT22;15243;50.726;7.080;2022-09-11T02:05:31;16.00;99.90
27900;DHT22;15243;50.726;7.080;2022-09-11T02:08:07;16.00;99.90
27900;DHT22;15243;50.726;7.080;2022-09-11T02:10:41;16.10;99.90
27900;DHT22;15243;50.726;7.080;2022-09-11T02:13:25;16.10;99.90
27900;DHT22;15243;50.726;7.080;2022-09-11T02:18:50;16.10;99.90
27900;DHT22;15243;50.726;7.080;2022-09-11T02:21:20;16.10;99.90
27900;DHT22;15243;50.726;7.080;2022-09-11T02:23:46;16.10;99.90
27900;DHT22;15243;50.726;7.080;2022-09-11T02:26:16;16.10;99.90
27900;DHT22;15243;50.726;7.080;2022-09-11T02:28:44;16.00;99.90
27900;DHT22;15243;50.726;7.080;2022-09-11T02:31:11;16.00;99.90
27900;DHT22;15243;50.726;7.080;2022-09-11T02:33:38;16.00;99.90
27900;DHT22;15243;50.726;7.080;2022-09-11T02:46:09;16.00;99.90
27900;DHT22;15243;50.726;7.080;2022-09-11T02:50:51;16.10;99.90
27900;DHT22;15243;50.726;7.080;2022-09-11T02:53:34;16.00;99.90
27900;DHT22;15243;50.726;7.080;2022-09-11T02:56:10;16.00;99.90
27900;DHT22;15243;50.726;7.080;2022-09-11T02:58:44;16.00;99.90
27900;DHT22;15243;50.726;7.080;2022-09-11T03:01:12;16.00;99.90
27900;DHT22;15243;50.726;7.080;2022-09-11T03:03:44;16.00;99.90
27900;DHT22;15243;50.726;7.080;2022-09-11T03:06:18;15.90;99.90
27900;DHT22;15243;50.726;7.080;2022-09-11T03:08:46;16.00;99.90
27900;DHT22;15243;50.726;7.080;2022-09-11T03:11:14;15.90;99.90
27900;DHT22;15243;50.726;7.080;2022-09-11T03:13:41;15.90;99.90
27900;DHT22;15243;50.726;7.080;2022-09-11T03:16:08;15.90;99.90
27900;DHT22;15243;50.726;7.080;2022-09-11T03:18:35;16.00;99.90
27900;DHT22;15243;50.726;7.080;2022-09-11T03:21:03;16.00;99.90
27900;DHT22;15243;50.726;7.080;2022-09-11T03:23:30;15.90;99.90
27900;DHT22;15243;50.726;7.080;2022-09-11T03:25:57;15.90;99.90
27900;DHT22;15243;50.726;7.080;2022-09-11T03:28:24;15.90;99.90
27900;DHT22;15243;50.726;7.080;2022-09-11T03:30:51;16.00;99.90
27900;DHT22;15243;50.726;7.080;2022-09-11T03:33:21;16.00;99.90
27900;DHT22;15243;50.726;7.080;2022-09-11T03:35:47;15.90;99.90
27900;DHT22;15243;50.726;7.080;2022-09-11T03:38:14;15.90;99.90
27900;DHT22;15243;50.726;7.080;2022-09-11T03:40:42;15.90;99.90
27900;DHT22;15243;50.726;7.080;2022-09-11T03:43:11;15.90;99.90
27900;DHT22;15243;50.726;7.080;2022-09-11T03:45:38;15.80;99.90
27900;DHT22;15243;50.726;7.080;2022-09-11T03:48:05;15.90;99.90
27900;DHT22;15243;50.726;7.080;2022-09-11T03:50:32;15.90;99.90
27900;DHT22;15243;50.726;7.080;2022-09-11T03:52:59;15.90;99.90
27900;DHT22;15243;50.726;7.080;2022-09-11T03:55:26;15.90;99.90
27900;DHT22;15243;50.726;7.080;2022-09-11T03:57:54;15.90;99.90
27900;DHT22;15243;50.726;7.080;2022-09-11T04:00:21;15.90;99.90
27900;DHT22;15243;50.726;7.080;2022-09-11T04:02:47;15.80;99.90
27900;DHT22;15243;50.726;7.080;2022-09-11T04:05:15;15.90;99.90
27900;DHT22;15243;50.726;7.080;2022-09-11T04:07:42;15.80;99.90
27900;DHT22;15243;50.726;7.080;2022-09-11T04:10:09;15.80;99.90
27900;DHT22;15243;50.726;7.080;2022-09-11T04:12:36;15.80;99.90
27900;DHT22;15243;50.726;7.080;2022-09-11T04:15:03;15.80;99.90
27900;DHT22;15243;50.726;7.080;2022-09-11T04:17:30;15.80;99.90
27900;DHT22;15243;50.726;7.080;2022-09-11T04:19:57;15.80;99.90
27900;DHT22;15243;50.726;7.080;2022-09-11T04:22:24;15.70;99.90
27900;DHT22;15243;50.726;7.080;2022-09-11T04:24:51;15.70;99.90
27900;DHT22;15243;50.726;7.080;2022-09-11T04:27:18;15.70;99.90
27900;DHT22;15243;50.726;7.080;2022-09-11T04:29:46;15.80;99.90
27900;DHT22;15243;50.726;7.080;2022-09-11T04:32:13;15.70;99.90
27900;DHT22;15243;50.726;7.080;2022-09-11T04:34:40;15.70;99.90
27900;DHT22;15243;50.726;7.080;2022-09-11T04:37:07;15.80;99.90
27900;DHT22;15243;50.726;7.080;2022-09-11T04:39:34;15.80;99.90
27900;DHT22;15243;50.726;7.080;2022-09-11T04:42:01;15.80;99.90
27900;DHT22;15243;50.726;7.080;2022-09-11T04:44:29;15.80;99.90
27900;DHT22;15243;50.726;7.080;2022-09-11T04:46:58;15.90;99.90
27900;DHT22;15243;50.726;7.080;2022-09-11T04:49:24;15.90;99.90
27900;DHT22;15243;50.726;7.080;2022-09-11T04:51:51;15.90;99.90
27900;DHT22;15243;50.726;7.080;2022-09-11T04:54:18;16.00;99.90
27900;DHT22;15243;50.726;7.080;2022-09-11T04:56:47;16.00;99.90
27900;DHT22;15243;50.726;7.080;2022-09-11T04:59:20;16.00;99.90
27900;DHT22;15243;50.726;7.080;2022-09-11T05:01:48;16.10;99.90
27900;DHT22;15243;50.726;7.080;2022-09-11T05:04:16;16.20;99.90
27900;DHT22;15243;50.726;7.080;2022-09-11T05:06:48;16.10;99.90
27900;DHT22;15243;50.726;7.080;2022-09-11T05:09:16;16.10;99.90
27900;DHT22;15243;50.726;7.080;2022-09-11T05:11:43;16.00;99.90
27900;DHT22;15243;50.726;7.080;2022-09-11T05:14:10;15.90;99.90
27900;DHT22;15243;50.726;7.080;2022-09-11T05:16:38;15.80;99.90
27900;DHT22;15243;50.726;7.080;2022-09-11T05:19:05;15.80;99.90
27900;DHT22;15243;50.726;7.080;2022-09-11T05:21:35;15.80;99.90
27900;DHT22;15243;50.726;7.080;2022-09-11T05:24:03;15.70;99.90
27900;DHT22;15243;50.726;7.080;2022-09-11T05:26:35;15.70;99.90
27900;DHT22;15243;50.726;7.080;2022-09-11T05:29:07;15.70;99.90
27900;DHT22;15243;50.726;7.080;2022-09-11T05:31:34;15.60;99.90
27900;DHT22;15243;50.726;7.080;2022-09-11T05:34:03;15.60;99.90
27900;DHT22;15243;50.726;7.080;2022-09-11T05:36:31;15.70;99.90
27900;DHT22;15243;50.726;7.080;2022-09-11T05:38:59;15.70;99.90
27900;DHT22;15243;50.726;7.080;2022-09-11T05:41:26;15.70;99.90
27900;DHT22;15243;50.726;7.080;2022-09-11T05:43:53;15.70;99.90
27900;DHT22;15243;50.726;7.080;2022-09-11T05:46:20;15.70;99.90
27900;DHT22;15243;50.726;7.080;2022-09-11T05:48:47;15.70;99.90
27900;DHT22;15243;50.726;7.080;2022-09-11T05:51:16;15.80;99.90
27900;DHT22;15243;50.726;7.080;2022-09-11T05:53:47;15.80;99.90
27900;DHT22;15243;50.726;7.080;2022-09-11T05:56:17;15.70;99.90
27900;DHT22;15243;50.726;7.080;2022-09-11T05:58:46;15.70;99.90
27900;DHT22;15243;50.726;7.080;2022-09-11T06:01:18;15.70;99.90
27900;DHT22;15243;50.726;7.080;2022-09-11T06:03:46;15.70;99.90
27900;DHT22;15243;50.726;7.080;2022-09-11T06:06:15;15.70;99.90
27900;DHT22;15243;50.726;7.080;2022-09-11T06:08:42;15.70;99.90
27900;DHT22;15243;50.726;7.080;2022-09-11T06:11:15;15.80;99.90
27900;DHT22;15243;50.726;7.080;2022-09-11T06:13:43;15.90;99.90
27900;DHT22;15243;50.726;7.080;2022-09-11T06:16:13;16.00;99.90
27900;DHT22;15243;50.726;7.080;2022-09-11T06:18:45;16.00;99.90
27900;DHT22;15243;50.726;7.080;2022-09-11T06:21:17;16.00;99.90
27900;DHT22;15243;50.726;7.080;2022-09-11T06:23:47;15.90;99.90
27900;DHT22;15243;50.726;7.080;2022-09-11T06:26:16;15.80;99.90
27900;DHT22;15243;50.726;7.080;2022-09-11T06:28:43;15.70;99.90
27900;DHT22;15243;50.726;7.080;2022-09-11T06:31:12;15.80;99.90
27900;DHT22;15243;50.726;7.080;2022-09-11T06:33:41;15.80;99.90
27900;DHT22;15243;50.726;7.080;2022-09-11T06:36:14;15.70;99.90
27900;DHT22;15243;50.726;7.080;2022-09-11T06:38:41;15.70;99.90
27900;DHT22;15243;50.726;7.080;2022-09-11T06:41:12;15.80;99.90
27900;DHT22;15243;50.726;7.080;2022-09-11T06:43:39;15.90;99.90
27900;DHT22;15243;50.726;7.080;2022-09-11T06:46:11;15.90;99.90
27900;DHT22;15243;50.726;7.080;2022-09-11T06:48:40;15.80;99.90
27900;DHT22;15243;50.726;7.080;2022-09-11T06:51:09;15.90;99.90
27900;DHT22;15243;50.726;7.080;2022-09-11T06:53:39;15.90;99.90
27900;DHT22;15243;50.726;7.080;2022-09-11T06:56:12;15.90;99.90
27900;DHT22;15243;50.726;7.080;2022-09-11T06:58:44;15.80;99.90
27900;DHT22;15243;50.726;7.080;2022-09-11T07:01:13;15.90;99.90
27900;DHT22;15243;50.726;7.080;2022-09-11T07:03:42;16.10;99.90
27900;DHT22;15243;50.726;7.080;2022-09-11T07:06:16;16.10;99.90
27900;DHT22;15243;50.726;7.080;2022-09-11T07:08:49;16.00;99.90
27900;DHT22;15243;50.726;7.080;2022-09-11T07:11:18;15.90;99.90
27900;DHT22;15243;50.726;7.080;2022-09-11T07:13:45;16.00;99.90
27900;DHT22;15243;50.726;7.080;2022-09-11T07:16:13;16.00;99.90
27900;DHT22;15243;50.726;7.080;2022-09-11T07:18:42;16.00;99.90
27900;DHT22;15243;50.726;7.080;2022-09-11T07:21:11;16.00;99.90
27900;DHT22;15243;50.726;7.080;2022-09-11T07:23:40;16.00;99.90
27900;DHT22;15243;50.726;7.080;2022-09-11T07:26:10;16.20;99.90
27900;DHT22;15243;50.726;7.080;2022-09-11T07:28:38;16.30;99.90
27900;DHT22;15243;50.726;7.080;2022-09-11T07:31:14;16.30;99.90
27900;DHT22;15243;50.726;7.080;2022-09-11T07:33:47;16.30;99.90
27900;DHT22;15243;50.726;7.080;2022-09-11T07:36:20;16.30;99.90
27900;DHT22;15243;50.726;7.080;2022-09-11T07:38:48;16.40;99.90
27900;DHT22;15243;50.726;7.080;2022-09-11T07:41:17;16.40;99.90
27900;DHT22;15243;50.726;7.080;2022-09-11T07:43:45;16.30;99.90
27900;DHT22;15243;50.726;7.080;2022-09-11T07:46:12;16.30;99.90
27900;DHT22;15243;50.726;7.080;2022-09-11T07:48:40;16.20;99.90
27900;DHT22;15243;50.726;7.080;2022-09-11T07:51:11;16.20;99.90
27900;DHT22;15243;50.726;7.080;2022-09-11T07:53:42;16.30;99.90
27900;DHT22;15243;50.726;7.080;2022-09-11T07:56:15;16.30;99.90
27900;DHT22;15243;50.726;7.080;2022-09-11T07:58:43;16.30;99.90
27900;DHT22;15243;50.726;7.080;2022-09-11T08:01:16;16.40;99.90
27900;DHT22;15243;50.726;7.080;2022-09-11T08:03:44;16.20;99.90
27900;DHT22;15243;50.726;7.080;2022-09-11T08:06:13;16.20;99.90
27900;DHT22;15243;50.726;7.080;2022-09-11T08:08:51;16.30;99.90
27900;DHT22;15243;50.726;7.080;2022-09-11T08:11:19;16.20;99.90
27900;DHT22;15243;50.726;7.080;2022-09-11T08:13:47;16.10;99.90
27900;DHT22;15243;50.726;7.080;2022-09-11T08:16:22;16.20;99.90
27900;DHT22;15243;50.726;7.080;2022-09-11T08:18:50;16.20;99.90
27900;DHT22;15243;50.726;7.080;2022-09-11T08:21:18;16.40;99.90
27900;DHT22;15243;50.726;7.080;2022-09-11T08:23:45;16.60;99.90
27900;DHT22;15243;50.726;7.080;2022-09-11T08:26:18;16.60;99.90
27900;DHT22;15243;50.726;7.080;2022-09-11T08:28:49;16.60;99.90
27900;DHT22;15243;50.726;7.080;2022-09-11T08:31:19;16.70;99.90
27900;DHT22;15243;50.726;7.080;2022-09-11T08:33:47;16.60;99.90
27900;DHT22;15243;50.726;7.080;2022-09-11T08:36:15;16.60;99.90
27900;DHT22;15243;50.726;7.080;2022-09-11T08:38:43;16.80;99.90
27900;DHT22;15243;50.726;7.080;2022-09-11T08:43:55;16.90;99.90
27900;DHT22;15243;50.726;7.080;2022-09-11T08:46:25;16.90;99.90
27900;DHT22;15243;50.726;7.080;2022-09-11T08:51:22;16.90;99.90
27900;DHT22;15243;50.726;7.080;2022-09-11T08:53:53;16.80;99.90
27900;DHT22;15243;50.726;7.080;2022-09-11T08:56:23;16.70;99.90
27900;DHT22;15243;50.726;7.080;2022-09-11T08:59:12;16.50;99.90
27900;DHT22;15243;50.726;7.080;2022-09-11T09:01:50;16.40;99.90
27900;DHT22;15243;50.726;7.080;2022-09-11T09:04:28;16.60;99.90
27900;DHT22;15243;50.726;7.080;2022-09-11T09:07:09;16.90;99.90
27900;DHT22;15243;50.726;7.080;2022-09-11T09:12:42;17.40;99.90
27900;DHT22;15243;50.726;7.080;2022-09-11T09:15:50;17.50;99.90
27900;DHT22;15243;50.726;7.080;2022-09-11T09:18:30;17.60;99.90
27900;DHT22;15243;50.726;7.080;2022-09-11T09:21:34;17.70;99.90
27900;DHT22;15243;50.726;7.080;2022-09-11T09:24:12;17.80;99.90
27900;DHT22;15243;50.726;7.080;2022-09-11T09:26:52;17.80;99.90
27900;DHT22;15243;50.726;7.080;2022-09-11T09:29:21;18.00;99.90
27900;DHT22;15243;50.726;7.080;2022-09-11T09:31:57;18.10;99.90
27900;DHT22;15243;50.726;7.080;2022-09-11T09:34:27;18.30;99.90
27900;DHT22;15243;50.726;7.080;2022-09-11T09:37:19;18.20;99.90
27900;DHT22;15243;50.726;7.080;2022-09-11T09:39:47;18.20;99.90
27900;DHT22;15243;50.726;7.080;2022-09-11T09:42:42;18.10;99.90
27900;DHT22;15243;50.726;7.080;2022-09-11T09:45:45;18.00;99.90
27900;DHT22;15243;50.726;7.080;2022-09-11T09:48:15;17.90;99.90
27900;DHT22;15243;50.726;7.080;2022-09-11T09:50:42;18.00;99.90
27900;DHT22;15243;50.726;7.080;2022-09-11T09:53:34;18.00;99.90
27900;DHT22;15243;50.726;7.080;2022-09-11T09:56:03;18.20;99.90
27900;DHT22;15243;50.726;7.080;2022-09-11T09:58:46;18.30;99.90
27900;DHT22;15243;50.726;7.080;2022-09-11T10:01:43;18.20;99.90
27900;DHT22;15243;50.726;7.080;2022-09-11T10:04:14;18.30;99.90
27900;DHT22;15243;50.726;7.080;2022-09-11T10:06:43;18.40;99.90
27900;DHT22;15243;50.726;7.080;2022-09-11T10:11:54;18.50;99.90
27900;DHT22;15243;50.726;7.080;2022-09-11T10:14:21;18.40;99.90
27900;DHT22;15243;50.726;7.080;2022-09-11T10:17:21;18.40;99.90
27900;DHT22;15243;50.726;7.080;2022-09-11T10:19:50;18.50;99.90
27900;DHT22;15243;50.726;7.080;2022-09-11T10:22:30;18.50;99.90
27900;DHT22;15243;50.726;7.080;2022-09-11T10:25:16;18.40;99.90
27900;DHT22;15243;50.726;7.080;2022-09-11T10:28:04;18.30;99.90
27900;DHT22;15243;50.726;7.080;2022-09-11T10:30:40;18.40;99.90
27900;DHT22;15243;50.726;7.080;2022-09-11T10:33:23;18.30;99.90
27900;DHT22;15243;50.726;7.080;2022-09-11T10:35:54;18.10;99.90
27900;DHT22;15243;50.726;7.080;2022-09-11T10:41:05;18.50;99.90
27900;DHT22;15243;50.726;7.080;2022-09-11T10:43:58;18.70;99.90
27900;DHT22;15243;50.726;7.080;2022-09-11T10:51:31;18.90;99.90
27900;DHT22;15243;50.726;7.080;2022-09-11T10:54:25;19.10;99.90
27900;DHT22;15243;50.726;7.080;2022-09-11T11:02:33;19.70;99.90
27900;DHT22;15243;50.726;7.080;2022-09-11T11:11:08;19.90;99.90
27900;DHT22;15243;50.726;7.080;2022-09-11T11:16:45;19.80;99.90
27900;DHT22;15243;50.726;7.080;2022-09-11T11:19:27;19.90;99.90
27900;DHT22;15243;50.726;7.080;2022-09-11T11:22:07;20.10;99.90
27900;DHT22;15243;50.726;7.080;2022-09-11T11:29:40;20.00;99.90
27900;DHT22;15243;50.726;7.080;2022-09-11T11:32:15;20.40;99.90
27900;DHT22;15243;50.726;7.080;2022-09-11T11:35:11;20.10;99.90
27900;DHT22;15243;50.726;7.080;2022-09-11T11:37:41;20.40;99.90
27900;DHT22;15243;50.726;7.080;2022-09-11T11:40:30;20.50;99.90
27900;DHT22;15243;50.726;7.080;2022-09-11T11:43:08;20.60;99.90
27900;DHT22;15243;50.726;7.080;2022-09-11T11:45:47;20.90;99.90
27900;DHT22;15243;50.726;7.080;2022-09-11T11:48:43;20.90;99.90
27900;DHT22;15243;50.726;7.080;2022-09-11T11:51:16;21.20;99.90
27900;DHT22;15243;50.726;7.080;2022-09-11T11:54:04;21.50;99.90
27900;DHT22;15243;50.726;7.080;2022-09-11T11:59:34;21.10;99.90
27900;DHT22;15243;50.726;7.080;2022-09-11T12:07:30;21.10;99.90
27900;DHT22;15243;50.726;7.080;2022-09-11T12:10:00;21.30;99.90
27900;DHT22;15243;50.726;7.080;2022-09-11T12:12:32;21.60;99.90
27900;DHT22;15243;50.726;7.080;2022-09-11T12:15:07;21.30;99.90
27900;DHT22;15243;50.726;7.080;2022-09-11T12:17:36;21.60;99.90
27900;DHT22;15243;50.726;7.080;2022-09-11T12:22:48;22.00;99.90
27900;DHT22;15243;50.726;7.080;2022-09-11T12:30:26;22.00;99.90
27900;DHT22;15243;50.726;7.080;2022-09-11T12:32:54;22.20;99.90
27900;DHT22;15243;50.726;7.080;2022-09-11T12:40:36;22.20;99.90
27900;DHT22;15243;50.726;7.080;2022-09-11T12:43:26;22.10;99.90
27900;DHT22;15243;50.726;7.080;2022-09-11T12:45:53;22.10;99.90
27900;DHT22;15243;50.726;7.080;2022-09-11T12:48:41;22.40;99.90
27900;DHT22;15243;50.726;7.080;2022-09-11T12:52:01;22.90;99.90
27900;DHT22;15243;50.726;7.080;2022-09-11T12:54:32;23.20;99.90
27900;DHT22;15243;50.726;7.080;2022-09-11T12:57:25;23.70;99.90
27900;DHT22;15243;50.726;7.080;2022-09-11T12:59:57;23.80;99.90
27900;DHT22;15243;50.726;7.080;2022-09-11T13:02:50;22.80;99.90
27900;DHT22;15243;50.726;7.080;2022-09-11T13:05:37;23.60;99.90
27900;DHT22;15243;50.726;7.080;2022-09-11T13:08:18;24.10;99.90
27900;DHT22;15243;50.726;7.080;2022-09-11T13:10:47;24.70;99.90
27900;DHT22;15243;50.726;7.080;2022-09-11T13:13:43;24.70;99.90
27900;DHT22;15243;50.726;7.080;2022-09-11T13:16:25;24.60;99.90
27900;DHT22;15243;50.726;7.080;2022-09-11T13:19:13;24.50;99.90
27900;DHT22;15243;50.726;7.080;2022-09-11T13:21:43;24.40;99.90
27900;DHT22;15243;50.726;7.080;2022-09-11T13:26:53;23.40;99.90
27900;DHT22;15243;50.726;7.080;2022-09-11T13:29:27;24.30;99.90
27900;DHT22;15243;50.726;7.080;2022-09-11T13:31:56;25.20;99.90
27900;DHT22;15243;50.726;7.080;2022-09-11T13:34:27;25.90;99.90
27900;DHT22;15243;50.726;7.080;2022-09-11T13:36:55;24.20;99.90
27900;DHT22;15243;50.726;7.080;2022-09-11T13:39:24;25.30;99.90
27900;DHT22;15243;50.726;7.080;2022-09-11T13:42:00;25.50;99.90
27900;DHT22;15243;50.726;7.080;2022-09-11T13:47:24;25.90;99.90
27900;DHT22;15243;50.726;7.080;2022-09-11T13:50:00;26.50;99.90
27900;DHT22;15243;50.726;7.080;2022-09-11T13:52:31;27.30;99.90
27900;DHT22;15243;50.726;7.080;2022-09-11T13:55:02;27.50;99.90
27900;DHT22;15243;50.726;7.080;2022-09-11T13:57:52;28.00;99.90
27900;DHT22;15243;50.726;7.080;2022-09-11T14:03:03;27.80;99.90
27900;DHT22;15243;50.726;7.080;2022-09-11T14:05:33;28.10;99.90
27900;DHT22;15243;50.726;7.080;2022-09-11T14:11:12;27.40;99.90
27900;DHT22;15243;50.726;7.080;2022-09-11T14:13:54;26.10;99.90
27900;DHT22;15243;50.726;7.080;2022-09-11T14:16:30;25.00;99.90
27900;DHT22;15243;50.726;7.080;2022-09-11T14:19:07;25.30;99.90
27900;DHT22;15243;50.726;7.080;2022-09-11T14:21:39;26.20;99.90
27900;DHT22;15243;50.726;7.080;2022-09-11T14:26:59;27.80;99.90
27900;DHT22;15243;50.726;7.080;2022-09-11T14:29:34;28.30;99.90
27900;DHT22;15243;50.726;7.080;2022-09-11T14:34:53;29.00;99.90
27900;DHT22;15243;50.726;7.080;2022-09-11T14:37:20;28.40;99.90
27900;DHT22;15243;50.726;7.080;2022-09-11T14:39:53;28.30;99.90
27900;DHT22;15243;50.726;7.080;2022-09-11T14:42:26;28.50;99.90
27900;DHT22;15243;50.726;7.080;2022-09-11T14:44:54;28.10;99.90
27900;DHT22;15243;50.726;7.080;2022-09-11T14:47:26;28.60;99.90
27900;DHT22;15243;50.726;7.080;2022-09-11T14:49:54;29.20;99.90
27900;DHT22;15243;50.726;7.080;2022-09-11T14:52:26;29.30;99.90
27900;DHT22;15243;50.726;7.080;2022-09-11T14:54:53;29.70;99.90
27900;DHT22;15243;50.726;7.080;2022-09-11T14:57:31;30.20;99.90
27900;DHT22;15243;50.726;7.080;2022-09-11T14:59:58;30.00;99.20
27900;DHT22;15243;50.726;7.080;2022-09-11T15:02:27;30.40;97.70
27900;DHT22;15243;50.726;7.080;2022-09-11T15:04:56;31.40;95.20
27900;DHT22;15243;50.726;7.080;2022-09-11T15:07:24;30.90;93.30
27900;DHT22;15243;50.726;7.080;2022-09-11T15:09:53;30.90;92.40
27900;DHT22;15243;50.726;7.080;2022-09-11T15:12:21;29.60;93.20
27900;DHT22;15243;50.726;7.080;2022-09-11T15:14:48;28.30;95.40
27900;DHT22;15243;50.726;7.080;2022-09-11T15:17:23;28.10;97.80
27900;DHT22;15243;50.726;7.080;2022-09-11T15:19:51;28.30;98.20
27900;DHT22;15243;50.726;7.080;2022-09-11T15:22:19;29.30;95.20
27900;DHT22;15243;50.726;7.080;2022-09-11T15:24:46;30.10;92.70
27900;DHT22;15243;50.726;7.080;2022-09-11T15:27:19;29.40;92.20
27900;DHT22;15243;50.726;7.080;2022-09-11T15:29:46;29.10;95.10
27900;DHT22;15243;50.726;7.080;2022-09-11T15:32:13;28.20;97.30
27900;DHT22;15243;50.726;7.080;2022-09-11T15:34:40;28.00;96.30
27900;DHT22;15243;50.726;7.080;2022-09-11T15:37:08;28.00;96.00
27900;DHT22;15243;50.726;7.080;2022-09-11T15:39:35;27.30;97.70
27900;DHT22;15243;50.726;7.080;2022-09-11T15:42:02;26.70;99.90
27900;DHT22;15243;50.726;7.080;2022-09-11T15:44:34;26.60;99.90
27900;DHT22;15243;50.726;7.080;2022-09-11T15:47:06;26.10;99.90
27900;DHT22;15243;50.726;7.080;2022-09-11T15:49:39;25.40;99.90
27900;DHT22;15243;50.726;7.080;2022-09-11T15:52:06;25.10;99.90
27900;DHT22;15243;50.726;7.080;2022-09-11T15:54:33;24.80;99.90
27900;DHT22;15243;50.726;7.080;2022-09-11T15:57:00;24.60;99.90
27900;DHT22;15243;50.726;7.080;2022-09-11T15:59:27;24.30;99.90
27900;DHT22;15243;50.726;7.080;2022-09-11T16:01:54;24.00;99.90
27900;DHT22;15243;50.726;7.080;2022-09-11T16:04:25;24.00;99.90
27900;DHT22;15243;50.726;7.080;2022-09-11T16:06:53;23.70;99.90
27900;DHT22;15243;50.726;7.080;2022-09-11T16:09:23;23.80;99.90
27900;DHT22;15243;50.726;7.080;2022-09-11T16:11:51;23.80;99.90
27900;DHT22;15243;50.726;7.080;2022-09-11T16:14:25;23.40;99.90
27900;DHT22;15243;50.726;7.080;2022-09-11T16:16:53;23.30;99.90
27900;DHT22;15243;50.726;7.080;2022-09-11T16:19:21;23.30;99.90
27900;DHT22;15243;50.726;7.080;2022-09-11T16:21:49;23.10;99.90
27900;DHT22;15243;50.726;7.080;2022-09-11T16:24:16;22.90;99.90
27900;DHT22;15243;50.726;7.080;2022-09-11T16:26:44;22.90;99.90
27900;DHT22;15243;50.726;7.080;2022-09-11T16:29:12;22.80;99.90
27900;DHT22;15243;50.726;7.080;2022-09-11T16:31:43;22.60;99.90
27900;DHT22;15243;50.726;7.080;2022-09-11T16:34:10;22.70;99.90
27900;DHT22;15243;50.726;7.080;2022-09-11T16:36:37;22.60;99.90
27900;DHT22;15243;50.726;7.080;2022-09-11T16:39:10;22.50;99.90
27900;DHT22;15243;50.726;7.080;2022-09-11T16:41:37;22.40;99.90
27900;DHT22;15243;50.726;7.080;2022-09-11T16:44:06;22.50;99.90
27900;DHT22;15243;50.726;7.080;2022-09-11T16:46:33;22.30;99.90
27900;DHT22;15243;50.726;7.080;2022-09-11T16:49:01;22.20;99.90
27900;DHT22;15243;50.726;7.080;2022-09-11T16:51:29;22.10;99.90
27900;DHT22;15243;50.726;7.080;2022-09-11T16:53:56;22.00;99.90
27900;DHT22;15243;50.726;7.080;2022-09-11T16:56:23;22.10;99.90
27900;DHT22;15243;50.726;7.080;2022-09-11T16:58:50;22.00;99.90
27900;DHT22;15243;50.726;7.080;2022-09-11T17:01:22;21.90;99.90
27900;DHT22;15243;50.726;7.080;2022-09-11T17:03:53;21.90;99.90
27900;DHT22;15243;50.726;7.080;2022-09-11T17:06:22;21.80;99.90
27900;DHT22;15243;50.726;7.080;2022-09-11T17:08:50;21.60;99.90
27900;DHT22;15243;50.726;7.080;2022-09-11T17:11:19;21.50;99.90
27900;DHT22;15243;50.726;7.080;2022-09-11T17:13:47;21.40;99.90
27900;DHT22;15243;50.726;7.080;2022-09-11T17:16:17;21.30;99.90
27900;DHT22;15243;50.726;7.080;2022-09-11T17:18:49;21.30;99.90
27900;DHT22;15243;50.726;7.080;2022-09-11T17:21:17;21.20;99.90
27900;DHT22;15243;50.726;7.080;2022-09-11T17:23:44;21.10;99.90
27900;DHT22;15243;50.726;7.080;2022-09-11T17:26:12;21.10;99.90
27900;DHT22;15243;50.726;7.080;2022-09-11T17:28:41;21.00;99.90
27900;DHT22;15243;50.726;7.080;2022-09-11T17:31:10;20.90;99.90
27900;DHT22;15243;50.726;7.080;2022-09-11T17:33:39;20.70;99.90
27900;DHT22;15243;50.726;7.080;2022-09-11T17:36:08;20.70;99.90
27900;DHT22;15243;50.726;7.080;2022-09-11T17:38:37;20.50;99.90
27900;DHT22;15243;50.726;7.080;2022-09-11T17:41:05;20.50;99.90
27900;DHT22;15243;50.726;7.080;2022-09-11T17:43:34;20.40;99.90
27900;DHT22;15243;50.726;7.080;2022-09-11T17:46:13;20.30;99.90
27900;DHT22;15243;50.726;7.080;2022-09-11T17:48:41;20.20;99.90
27900;DHT22;15243;50.726;7.080;2022-09-11T17:51:19;20.10;99.90